Aviation Digital Data Service (ADDS)

Output produced by METARs form (0112 UTC 23 March 2019)
found at http://www.aviationweather.gov/metar/data/
 
METAR text: KPIH 230053Z 17004KT 10SM SCT023 BKN044 BKN055 06/03 A3002 RMK AO2 RAE16 SLP168 P0000 T00560033
Conditions at: KPIH (POCATELLO , ID, US) observed 0053 UTC 23 March 2019
Temperature: 5.6°C (42°F)
Dewpoint: 3.3°C (38°F) [RH = 85%]
Pressure (altimeter): 30.02 inches Hg (1016.7 mb)
[Sea-level pressure: 1016.8 mb]
Winds: from the S (170 degrees) at 5 MPH (4 knots; 2.1 m/s)
Visibility: 10 or more miles (16+ km)
Ceiling: 4400 feet AGL
Clouds: scattered clouds at 2300 feet AGL
broken clouds at 4400 feet AGL
broken clouds at 5500 feet AGL
Weather: no significant weather observed at this time

METAR text: KPIH 222353Z 18007KT 8SM -RA BKN027 OVC035 06/03 A3002 RMK AO2 SLP164 P0002 60006 T00560033 10067 20050 51007
Conditions at: KPIH (POCATELLO , ID, US) observed 2353 UTC 22 March 2019
Temperature: 5.6°C (42°F)
Dewpoint: 3.3°C (38°F) [RH = 85%]
Pressure (altimeter): 30.02 inches Hg (1016.7 mb)
[Sea-level pressure: 1016.4 mb]
Winds: from the S (180 degrees) at 8 MPH (7 knots; 3.6 m/s)
Visibility: 8 miles (13 km)
Ceiling: 2700 feet AGL
Clouds: broken clouds at 2700 feet AGL
overcast cloud deck at 3500 feet AGL
Weather: -RA  (light rain)

METAR text: KPIH 222253Z 20007KT 10SM -RA BKN027 OVC035 06/03 A3001 RMK AO2 SLP161 P0001 T00560028
Conditions at: KPIH (POCATELLO , ID, US) observed 2253 UTC 22 March 2019
Temperature: 5.6°C (42°F)
Dewpoint: 2.8°C (37°F) [RH = 82%]
Pressure (altimeter): 30.01 inches Hg (1016.3 mb)
[Sea-level pressure: 1016.1 mb]
Winds: from the SSW (200 degrees) at 8 MPH (7 knots; 3.6 m/s)
Visibility: 10 or more miles (16+ km)
Ceiling: 2700 feet AGL
Clouds: broken clouds at 2700 feet AGL
overcast cloud deck at 3500 feet AGL
Weather: -RA  (light rain)

METAR text: KPIH 222153Z 20011KT 10SM -RA SCT016 BKN020 OVC046 06/03 A3000 RMK AO2 SLP159 P0000 T00560028
Conditions at: KPIH (POCATELLO , ID, US) observed 2153 UTC 22 March 2019
Temperature: 5.6°C (42°F)
Dewpoint: 2.8°C (37°F) [RH = 82%]
Pressure (altimeter): 30.00 inches Hg (1016.0 mb)
[Sea-level pressure: 1015.9 mb]
Winds: from the SSW (200 degrees) at 13 MPH (11 knots; 5.7 m/s)
Visibility: 10 or more miles (16+ km)
Ceiling: 2000 feet AGL
Clouds: scattered clouds at 1600 feet AGL
broken clouds at 2000 feet AGL
overcast cloud deck at 4600 feet AGL
Weather: -RA  (light rain)

METAR text: KPIH 222053Z 19013KT 10SM -RA SCT016 BKN020 OVC044 06/03 A2999 RMK AO2 RAB1956 SLP155 P0002 60003 T00610033 50004
Conditions at: KPIH (POCATELLO , ID, US) observed 2053 UTC 22 March 2019
Temperature: 6.1°C (43°F)
Dewpoint: 3.3°C (38°F) [RH = 82%]
Pressure (altimeter): 29.99 inches Hg (1015.7 mb)
[Sea-level pressure: 1015.5 mb]
Winds: from the S (190 degrees) at 15 MPH (13 knots; 6.7 m/s)
Visibility: 10 or more miles (16+ km)
Ceiling: 2000 feet AGL
Clouds: scattered clouds at 1600 feet AGL
broken clouds at 2000 feet AGL
overcast cloud deck at 4400 feet AGL
Weather: -RA  (light rain)

METAR text: KPIH 221953Z 20011KT 10SM BKN022 BKN027 OVC047 06/03 A2999 RMK AO2 RAE40 SLP156 P0000 T00610028
Conditions at: KPIH (POCATELLO , ID, US) observed 1953 UTC 22 March 2019
Temperature: 6.1°C (43°F)
Dewpoint: 2.8°C (37°F) [RH = 79%]
Pressure (altimeter): 29.99 inches Hg (1015.7 mb)
[Sea-level pressure: 1015.6 mb]
Winds: from the SSW (200 degrees) at 13 MPH (11 knots; 5.7 m/s)
Visibility: 10 or more miles (16+ km)
Ceiling: 2200 feet AGL
Clouds: broken clouds at 2200 feet AGL
broken clouds at 2700 feet AGL
overcast cloud deck at 4700 feet AGL
Weather: no significant weather observed at this time

METAR text: KPIH 221900Z VRB05KT 10SM -RA BKN015 OVC020 06/03 A2999 RMK AO2 P0000 T00610033
Conditions at: KPIH (POCATELLO , ID, US) observed 1900 UTC 22 March 2019
Temperature: 6.1°C (43°F)
Dewpoint: 3.3°C (38°F) [RH = 82%]
Pressure (altimeter): 29.99 inches Hg (1015.7 mb)
Winds: variable direction winds at 6 MPH (5 knots; 2.6 m/s)
Visibility: 10 or more miles (16+ km)
Ceiling: 1500 feet AGL
Clouds: broken clouds at 1500 feet AGL
overcast cloud deck at 2000 feet AGL
Weather: -RA  (light rain)

METAR text: KPIH 221853Z 11003KT 8SM -RA FEW015 OVC038 06/03 A2999 RMK AO2 SLP155 P0001 T00560033
Conditions at: KPIH (POCATELLO , ID, US) observed 1853 UTC 22 March 2019
Temperature: 5.6°C (42°F)
Dewpoint: 3.3°C (38°F) [RH = 85%]
Pressure (altimeter): 29.99 inches Hg (1015.7 mb)
[Sea-level pressure: 1015.5 mb]
Winds: from the ESE (110 degrees) at 3 MPH (3 knots; 1.5 m/s)
Visibility: 8 miles (13 km)
Ceiling: 3800 feet AGL
Clouds: few clouds at 1500 feet AGL
overcast cloud deck at 3800 feet AGL
Weather: -RA  (light rain)

METAR text: KPIH 221753Z 21006KT 10SM -RA FEW015 OVC038 05/03 A2998 RMK AO2 RAB1658 SLP155 P0004 60019 T00500028 10050 20033 51007
Conditions at: KPIH (POCATELLO , ID, US) observed 1753 UTC 22 March 2019
Temperature: 5.0°C (41°F)
Dewpoint: 2.8°C (37°F) [RH = 86%]
Pressure (altimeter): 29.98 inches Hg (1015.3 mb)
[Sea-level pressure: 1015.5 mb]
Winds: from the SSW (210 degrees) at 7 MPH (6 knots; 3.1 m/s)
Visibility: 10 or more miles (16+ km)
Ceiling: 3800 feet AGL
Clouds: few clouds at 1500 feet AGL
overcast cloud deck at 3800 feet AGL
Weather: -RA  (light rain)

METAR text: KPIH 221653Z 21004KT 7SM OVC017 03/02 A2998 RMK AO2 SLP154 P0001 T00330022 $
Conditions at: KPIH (POCATELLO , ID, US) observed 1653 UTC 22 March 2019
Temperature: 3.3°C (38°F)
Dewpoint: 2.2°C (36°F) [RH = 92%]
Pressure (altimeter): 29.98 inches Hg (1015.3 mb)
[Sea-level pressure: 1015.4 mb]
Winds: from the SSW (210 degrees) at 5 MPH (4 knots; 2.1 m/s)
Visibility: 7 miles (11 km)
Ceiling: 1700 feet AGL
Clouds: overcast cloud deck at 1700 feet AGL
Weather:
SOME DATA ABOVE MAY BE INACCURATE!!!
"$" is an indication the sensor requires maintenance

METAR text: KPIH 221553Z 21006KT 10SM FEW008 OVC022 04/02 A2997 RMK AO2 RAB18RAEMM SLP148 P0002 T00390022 $
Conditions at: KPIH (POCATELLO , ID, US) observed 1553 UTC 22 March 2019
Temperature: 3.9°C (39°F)
Dewpoint: 2.2°C (36°F) [RH = 89%]
Pressure (altimeter): 29.97 inches Hg (1015.0 mb)
[Sea-level pressure: 1014.8 mb]
Winds: from the SSW (210 degrees) at 7 MPH (6 knots; 3.1 m/s)
Visibility: 10 or more miles (16+ km)
Ceiling: 2200 feet AGL
Clouds: few clouds at 800 feet AGL
overcast cloud deck at 2200 feet AGL
Weather:
SOME DATA ABOVE MAY BE INACCURATE!!!
"$" is an indication the sensor requires maintenance

METAR text: KPIH 221453Z 09005KT 7SM BKN026 OVC030 04/02 A2996 RMK AO2 RAE29 SLP143 P0002 60012 T00390022 51008 $
Conditions at: KPIH (POCATELLO , ID, US) observed 1453 UTC 22 March 2019
Temperature: 3.9°C (39°F)
Dewpoint: 2.2°C (36°F) [RH = 89%]
Pressure (altimeter): 29.96 inches Hg (1014.6 mb)
[Sea-level pressure: 1014.3 mb]
Winds: from the E (90 degrees) at 6 MPH (5 knots; 2.6 m/s)
Visibility: 7 miles (11 km)
Ceiling: 2600 feet AGL
Clouds: broken clouds at 2600 feet AGL
overcast cloud deck at 3000 feet AGL
Weather:
SOME DATA ABOVE MAY BE INACCURATE!!!
"$" is an indication the sensor requires maintenance

METAR text: KPIH 221433Z 00000KT 7SM FEW019 BKN024 OVC032 04/03 A2996 RMK AO2 RAE29 P0001 T00390028 $
Conditions at: KPIH (POCATELLO , ID, US) observed 1433 UTC 22 March 2019
Temperature: 3.9°C (39°F)
Dewpoint: 2.8°C (37°F) [RH = 93%]
Pressure (altimeter): 29.96 inches Hg (1014.6 mb)
Winds: calm
Visibility: 7 miles (11 km)
Ceiling: 2400 feet AGL
Clouds: few clouds at 1900 feet AGL
broken clouds at 2400 feet AGL
overcast cloud deck at 3200 feet AGL
Weather:
SOME DATA ABOVE MAY BE INACCURATE!!!
"$" is an indication the sensor requires maintenance

METAR text: KPIH 221353Z 19003KT 10SM -RA FEW023 BKN035 OVC044 03/02 A2995 RMK AO2 SLP138 P0005 T00330022 /
Conditions at: KPIH (POCATELLO , ID, US) observed 1353 UTC 22 March 2019
Temperature: 3.3°C (38°F)
Dewpoint: 2.2°C (36°F) [RH = 92%]
Pressure (altimeter): 29.95 inches Hg (1014.3 mb)
[Sea-level pressure: 1013.8 mb]
Winds: from the S (190 degrees) at 3 MPH (3 knots; 1.5 m/s)
Visibility: 10 or more miles (16+ km)
Ceiling: 3500 feet AGL
Clouds: few clouds at 2300 feet AGL
broken clouds at 3500 feet AGL
overcast cloud deck at 4400 feet AGL
Weather: -RA  (light rain)

METAR text: KPIH 221253Z 00000KT 8SM -RA OVC026 04/03 A2994 RMK AO2 SLP130 P0005 T00390028
Conditions at: KPIH (POCATELLO , ID, US) observed 1253 UTC 22 March 2019
Temperature: 3.9°C (39°F)
Dewpoint: 2.8°C (37°F) [RH = 93%]
Pressure (altimeter): 29.94 inches Hg (1014.0 mb)
[Sea-level pressure: 1013.0 mb]
Winds: calm
Visibility: 8 miles (13 km)
Ceiling: 2600 feet AGL
Clouds: overcast cloud deck at 2600 feet AGL
Weather: -RA  (light rain)

METAR text: KPIH 221242Z 21006KT 7SM RA OVC028 04/03 A2994 RMK AO2 P0003 T00390028
Conditions at: KPIH (POCATELLO , ID, US) observed 1242 UTC 22 March 2019
Temperature: 3.9°C (39°F)
Dewpoint: 2.8°C (37°F) [RH = 93%]
Pressure (altimeter): 29.94 inches Hg (1014.0 mb)
Winds: from the SSW (210 degrees) at 7 MPH (6 knots; 3.1 m/s)
Visibility: 7 miles (11 km)
Ceiling: 2800 feet AGL
Clouds: overcast cloud deck at 2800 feet AGL
Weather: RA  (moderate rain)

METAR text: KPIH 221153Z AUTO 10005KT 10SM -RA BKN033 OVC043 05/02 A2993 RMK AO2 RAB1057 SLP123 P0001 60001 70001 T00500022 10072 20033 53000
Conditions at: KPIH (POCATELLO , ID, US) observed 1153 UTC 22 March 2019
Temperature: 5.0°C (41°F)
Dewpoint: 2.2°C (36°F) [RH = 82%]
Pressure (altimeter): 29.93 inches Hg (1013.6 mb)
[Sea-level pressure: 1012.3 mb]
Winds: from the E (100 degrees) at 6 MPH (5 knots; 2.6 m/s)
Visibility: 10 or more miles (16+ km)
Ceiling: 3300 feet AGL
Clouds: broken clouds at 3300 feet AGL
overcast cloud deck at 4300 feet AGL
Weather: -RA  (light rain)

METAR text: KPIH 221053Z AUTO 12009KT 10SM OVC045 07/M01 A2991 RMK AO2 SLP113 T00671006
Conditions at: KPIH (POCATELLO , ID, US) observed 1053 UTC 22 March 2019
Temperature: 6.7°C (44°F)
Dewpoint: -0.6°C (31°F) [RH = 60%]
Pressure (altimeter): 29.91 inches Hg (1013.0 mb)
[Sea-level pressure: 1011.3 mb]
Winds: from the ESE (120 degrees) at 10 MPH (9 knots; 4.6 m/s)
Visibility: 10 or more miles (16+ km)
Ceiling: 4500 feet AGL
Clouds: overcast cloud deck at 4500 feet AGL
Weather: automated observation with no human augmentation;
there may or may not be significant weather present at this time

METAR text: KPIH 220953Z AUTO VRB03KT 10SM OVC070 06/00 A2991 RMK AO2 SLP117 T00560000
Conditions at: KPIH (POCATELLO , ID, US) observed 0953 UTC 22 March 2019
Temperature: 5.6°C (42°F)
Dewpoint: 0.0°C (32°F) [RH = 67%]
Pressure (altimeter): 29.91 inches Hg (1013.0 mb)
[Sea-level pressure: 1011.7 mb]
Winds: variable direction winds at 3 MPH (3 knots; 1.5 m/s)
Visibility: 10 or more miles (16+ km)
Ceiling: 7000 feet AGL
Clouds: overcast cloud deck at 7000 feet AGL
Weather: automated observation with no human augmentation;
there may or may not be significant weather present at this time

METAR text: KPIH 220853Z AUTO 20003KT 10SM OVC085 05/00 A2993 RMK AO2 SLP123 T00500000 57002
Conditions at: KPIH (POCATELLO , ID, US) observed 0853 UTC 22 March 2019
Temperature: 5.0°C (41°F)
Dewpoint: 0.0°C (32°F) [RH = 70%]
Pressure (altimeter): 29.93 inches Hg (1013.6 mb)
[Sea-level pressure: 1012.3 mb]
Winds: from the SSW (200 degrees) at 3 MPH (3 knots; 1.5 m/s)
Visibility: 10 or more miles (16+ km)
Ceiling: 8500 feet AGL
Clouds: overcast cloud deck at 8500 feet AGL
Weather: automated observation with no human augmentation;
there may or may not be significant weather present at this time

METAR text: KPIH 220753Z AUTO 13003KT 10SM OVC070 05/00 A2993 RMK AO2 SLP126 T00500000
Conditions at: KPIH (POCATELLO , ID, US) observed 0753 UTC 22 March 2019
Temperature: 5.0°C (41°F)
Dewpoint: 0.0°C (32°F) [RH = 70%]
Pressure (altimeter): 29.93 inches Hg (1013.6 mb)
[Sea-level pressure: 1012.6 mb]
Winds: from the SE (130 degrees) at 3 MPH (3 knots; 1.5 m/s)
Visibility: 10 or more miles (16+ km)
Ceiling: 7000 feet AGL
Clouds: overcast cloud deck at 7000 feet AGL
Weather: automated observation with no human augmentation;
there may or may not be significant weather present at this time

METAR text: KPIH 220653Z AUTO 21003KT 10SM BKN085 OVC110 04/00 A2993 RMK AO2 SLP127 T00440000 401281022
Conditions at: KPIH (POCATELLO , ID, US) observed 0653 UTC 22 March 2019
Temperature: 4.4°C (40°F)
Dewpoint: 0.0°C (32°F) [RH = 73%]
Pressure (altimeter): 29.93 inches Hg (1013.6 mb)
[Sea-level pressure: 1012.7 mb]
Winds: from the SSW (210 degrees) at 3 MPH (3 knots; 1.5 m/s)
Visibility: 10 or more miles (16+ km)
Ceiling: 8500 feet AGL
Clouds: broken clouds at 8500 feet AGL
overcast cloud deck at 11000 feet AGL
Weather: automated observation with no human augmentation;
there may or may not be significant weather present at this time

METAR text: KPIH 220553Z AUTO 04004KT 10SM BKN090 OVC110 04/M01 A2994 RMK AO2 SLP133 T00391006 10122 20039 51010
Conditions at: KPIH (POCATELLO , ID, US) observed 0553 UTC 22 March 2019
Temperature: 3.9°C (39°F)
Dewpoint: -0.6°C (31°F) [RH = 72%]
Pressure (altimeter): 29.94 inches Hg (1014.0 mb)
[Sea-level pressure: 1013.3 mb]
Winds: from the NE (40 degrees) at 5 MPH (4 knots; 2.1 m/s)
Visibility: 10 or more miles (16+ km)
Ceiling: 9000 feet AGL
Clouds: broken clouds at 9000 feet AGL
overcast cloud deck at 11000 feet AGL
Weather: automated observation with no human augmentation;
there may or may not be significant weather present at this time

METAR text: KPIH 220453Z AUTO 00000KT 10SM SCT120 05/M01 A2993 RMK AO2 SLP131 T00501006
Conditions at: KPIH (POCATELLO , ID, US) observed 0453 UTC 22 March 2019
Temperature: 5.0°C (41°F)
Dewpoint: -0.6°C (31°F) [RH = 67%]
Pressure (altimeter): 29.93 inches Hg (1013.6 mb)
[Sea-level pressure: 1013.1 mb]
Winds: calm
Visibility: 10 or more miles (16+ km)
Ceiling: at least 12,000 feet AGL
Clouds: scattered clouds at 12000 feet AGL
Weather: automated observation with no human augmentation;
there may or may not be significant weather present at this time

METAR text: KPIH 220353Z 21003KT 10SM CLR 06/M01 A2992 RMK AO2 SLP133 T00561011
Conditions at: KPIH (POCATELLO , ID, US) observed 0353 UTC 22 March 2019
Temperature: 5.6°C (42°F)
Dewpoint: -1.1°C (30°F) [RH = 62%]
Pressure (altimeter): 29.92 inches Hg (1013.3 mb)
[Sea-level pressure: 1013.3 mb]
Winds: from the SSW (210 degrees) at 3 MPH (3 knots; 1.5 m/s)
Visibility: 10 or more miles (16+ km)
Ceiling: at least 12,000 feet AGL
Clouds: sky clear below 12,000 feet AGL
Weather: no significant weather observed at this time

METAR text: KPIH 220253Z 19004KT 10SM FEW110 07/M01 A2990 RMK AO2 SLP130 T00721011 55001
Conditions at: KPIH (POCATELLO , ID, US) observed 0253 UTC 22 March 2019
Temperature: 7.2°C (45°F)
Dewpoint: -1.1°C (30°F) [RH = 56%]
Pressure (altimeter): 29.90 inches Hg (1012.6 mb)
[Sea-level pressure: 1013.0 mb]
Winds: from the S (190 degrees) at 5 MPH (4 knots; 2.1 m/s)
Visibility: 10 or more miles (16+ km)
Ceiling: at least 12,000 feet AGL
Clouds: few clouds at 11000 feet AGL
Weather: no significant weather observed at this time

METAR text: KPIH 220153Z 00000KT 10SM CLR 09/00 A2990 RMK AO2 SLP128 T00890000
Conditions at: KPIH (POCATELLO , ID, US) observed 0153 UTC 22 March 2019
Temperature: 8.9°C (48°F)
Dewpoint: 0.0°C (32°F) [RH = 54%]
Pressure (altimeter): 29.90 inches Hg (1012.6 mb)
[Sea-level pressure: 1012.8 mb]
Winds: calm
Visibility: 10 or more miles (16+ km)
Ceiling: at least 12,000 feet AGL
Clouds: sky clear below 12,000 feet AGL
Weather: no significant weather observed at this time

METAR text: KPIH 220053Z 00000KT 10SM CLR 11/M02 A2989 RMK AO2 SLP122 T01111022
Conditions at: KPIH (POCATELLO , ID, US) observed 0053 UTC 22 March 2019
Temperature: 11.1°C (52°F)
Dewpoint: -2.2°C (28°F) [RH = 39%]
Pressure (altimeter): 29.89 inches Hg (1012.3 mb)
[Sea-level pressure: 1012.2 mb]
Winds: calm
Visibility: 10 or more miles (16+ km)
Ceiling: at least 12,000 feet AGL
Clouds: sky clear below 12,000 feet AGL
Weather: no significant weather observed at this time

METAR text: KPIH 212353Z 11007KT 10SM BKN110 12/M03 A2991 RMK AO2 SLP127 T01221033 10128 20089 58014
Conditions at: KPIH (POCATELLO , ID, US) observed 2353 UTC 21 March 2019
Temperature: 12.2°C (54°F)
Dewpoint: -3.3°C (26°F) [RH = 34%]
Pressure (altimeter): 29.91 inches Hg (1013.0 mb)
[Sea-level pressure: 1012.7 mb]
Winds: from the ESE (110 degrees) at 8 MPH (7 knots; 3.6 m/s)
Visibility: 10 or more miles (16+ km)
Ceiling: 11000 feet AGL
Clouds: broken clouds at 11000 feet AGL
Weather: no significant weather observed at this time

METAR text: KPIH 212253Z 09007KT 10SM SCT120 13/M03 A2993 RMK AO2 SLP131 T01281033
Conditions at: KPIH (POCATELLO , ID, US) observed 2253 UTC 21 March 2019
Temperature: 12.8°C (55°F)
Dewpoint: -3.3°C (26°F) [RH = 32%]
Pressure (altimeter): 29.93 inches Hg (1013.6 mb)
[Sea-level pressure: 1013.1 mb]
Winds: from the E (90 degrees) at 8 MPH (7 knots; 3.6 m/s)
Visibility: 10 or more miles (16+ km)
Ceiling: at least 12,000 feet AGL
Clouds: scattered clouds at 12000 feet AGL
Weather: no significant weather observed at this time

METAR text: KPIH 212153Z 13007KT 10SM BKN070 BKN085 12/M04 A2994 RMK AO2 SLP136 T01221039
Conditions at: KPIH (POCATELLO , ID, US) observed 2153 UTC 21 March 2019
Temperature: 12.2°C (54°F)
Dewpoint: -3.9°C (25°F) [RH = 32%]
Pressure (altimeter): 29.94 inches Hg (1014.0 mb)
[Sea-level pressure: 1013.6 mb]
Winds: from the SE (130 degrees) at 8 MPH (7 knots; 3.6 m/s)
Visibility: 10 or more miles (16+ km)
Ceiling: 7000 feet AGL
Clouds: broken clouds at 7000 feet AGL
broken clouds at 8500 feet AGL
Weather: no significant weather observed at this time

METAR text: KPIH 212053Z 21010KT 10SM BKN080 OVC090 12/M04 A2995 RMK AO2 SLP141 T01221039 58016
Conditions at: KPIH (POCATELLO , ID, US) observed 2053 UTC 21 March 2019
Temperature: 12.2°C (54°F)
Dewpoint: -3.9°C (25°F) [RH = 32%]
Pressure (altimeter): 29.95 inches Hg (1014.3 mb)
[Sea-level pressure: 1014.1 mb]
Winds: from the SSW (210 degrees) at 12 MPH (10 knots; 5.1 m/s)
Visibility: 10 or more miles (16+ km)
Ceiling: 8000 feet AGL
Clouds: broken clouds at 8000 feet AGL
overcast cloud deck at 9000 feet AGL
Weather: no significant weather observed at this time

METAR text: KPIH 211953Z 25006KT 10SM SCT100 BKN110 11/M05 A2998 RMK AO2 SLP152 T01111050
Conditions at: KPIH (POCATELLO , ID, US) observed 1953 UTC 21 March 2019
Temperature: 11.1°C (52°F)
Dewpoint: -5.0°C (23°F) [RH = 32%]
Pressure (altimeter): 29.98 inches Hg (1015.3 mb)
[Sea-level pressure: 1015.2 mb]
Winds: from the WSW (250 degrees) at 7 MPH (6 knots; 3.1 m/s)
Visibility: 10 or more miles (16+ km)
Ceiling: 11000 feet AGL
Clouds: scattered clouds at 10000 feet AGL
broken clouds at 11000 feet AGL
Weather: no significant weather observed at this time

METAR text: KPIH 211853Z 27004KT 10SM CLR 11/M06 A2999 RMK AO2 SLP153 T01111061
Conditions at: KPIH (POCATELLO , ID, US) observed 1853 UTC 21 March 2019
Temperature: 11.1°C (52°F)
Dewpoint: -6.1°C (21°F) [RH = 29%]
Pressure (altimeter): 29.99 inches Hg (1015.7 mb)
[Sea-level pressure: 1015.3 mb]
Winds: from the W (270 degrees) at 5 MPH (4 knots; 2.1 m/s)
Visibility: 10 or more miles (16+ km)
Ceiling: at least 12,000 feet AGL
Clouds: sky clear below 12,000 feet AGL
Weather: no significant weather observed at this time

METAR text: KPIH 211753Z 00000KT 10SM CLR 09/M06 A3001 RMK AO2 SLP158 T00891061 10089 21022 58006
Conditions at: KPIH (POCATELLO , ID, US) observed 1753 UTC 21 March 2019
Temperature: 8.9°C (48°F)
Dewpoint: -6.1°C (21°F) [RH = 34%]
Pressure (altimeter): 30.01 inches Hg (1016.3 mb)
[Sea-level pressure: 1015.8 mb]
Winds: calm
Visibility: 10 or more miles (16+ km)
Ceiling: at least 12,000 feet AGL
Clouds: sky clear below 12,000 feet AGL
Weather: no significant weather observed at this time

METAR text: KPIH 211653Z 02004KT 10SM CLR 07/M05 A3002 RMK AO2 SLP167 T00721050
Conditions at: KPIH (POCATELLO , ID, US) observed 1653 UTC 21 March 2019
Temperature: 7.2°C (45°F)
Dewpoint: -5.0°C (23°F) [RH = 41%]
Pressure (altimeter): 30.02 inches Hg (1016.7 mb)
[Sea-level pressure: 1016.7 mb]
Winds: from the NNE (20 degrees) at 5 MPH (4 knots; 2.1 m/s)
Visibility: 10 or more miles (16+ km)
Ceiling: at least 12,000 feet AGL
Clouds: sky clear below 12,000 feet AGL
Weather: no significant weather observed at this time

METAR text: KPIH 211553Z 02004KT 10SM CLR 03/M04 A3002 RMK AO2 SLP168 T00331039
Conditions at: KPIH (POCATELLO , ID, US) observed 1553 UTC 21 March 2019
Temperature: 3.3°C (38°F)
Dewpoint: -3.9°C (25°F) [RH = 59%]
Pressure (altimeter): 30.02 inches Hg (1016.7 mb)
[Sea-level pressure: 1016.8 mb]
Winds: from the NNE (20 degrees) at 5 MPH (4 knots; 2.1 m/s)
Visibility: 10 or more miles (16+ km)
Ceiling: at least 12,000 feet AGL
Clouds: sky clear below 12,000 feet AGL
Weather: no significant weather observed at this time

METAR text: KPIH 211453Z 01006KT 10SM CLR 01/M04 A3003 RMK AO2 SLP174 T00061039 56006
Conditions at: KPIH (POCATELLO , ID, US) observed 1453 UTC 21 March 2019
Temperature: 0.6°C (33°F)
Dewpoint: -3.9°C (25°F) [RH = 72%]
Pressure (altimeter): 30.03 inches Hg (1017.0 mb)
[Sea-level pressure: 1017.4 mb]
Winds: from the N (10 degrees) at 7 MPH (6 knots; 3.1 m/s)
Visibility: 10 or more miles (16+ km)
Ceiling: at least 12,000 feet AGL
Clouds: sky clear below 12,000 feet AGL
Weather: no significant weather observed at this time

METAR text: KPIH 211353Z 15003KT 10SM CLR M01/M06 A3003 RMK AO2 SLP175 T10111056
Conditions at: KPIH (POCATELLO , ID, US) observed 1353 UTC 21 March 2019
Temperature: -1.1°C (30°F)
Dewpoint: -5.6°C (22°F) [RH = 71%]
Pressure (altimeter): 30.03 inches Hg (1017.0 mb)
[Sea-level pressure: 1017.5 mb]
Winds: from the SSE (150 degrees) at 3 MPH (3 knots; 1.5 m/s)
Visibility: 10 or more miles (16+ km)
Ceiling: at least 12,000 feet AGL
Clouds: sky clear below 12,000 feet AGL
Weather: no significant weather observed at this time

Forecast for: KPIH (POCATELLO , ID, US)
Text: KPIH 222320Z 2300/2324 21011KT P6SM -RA SCT015 OVC025
Forecast period: 0000 to 0300 UTC 23 March 2019
Forecast type: FROM: standard forecast or significant change
Winds: from the SSW (210 degrees) at 13 MPH (11 knots; 5.7 m/s)
Visibility: 6 or more miles 10+ km)
Ceiling: 2500 feet AGL
Clouds: scattered clouds at 1500 feet AGL
overcast cloud deck at 2500 feet AGL
Weather: -RA  (light rain)
Text: FM230300 22006KT P6SM VCSH SCT025 OVC040
Forecast period: 0300 to 1000 UTC 23 March 2019
Forecast type: FROM: standard forecast or significant change
Winds: from the SW (220 degrees) at 7 MPH (6 knots; 3.1 m/s)
Visibility: 6 or more miles 10+ km)
Ceiling: 4000 feet AGL
Clouds: scattered clouds at 2500 feet AGL
overcast cloud deck at 4000 feet AGL
Weather: VCSH  (showers in vicinity)
Text: FM231000 VRB05KT 6SM BR VCSH SCT008 OVC025
Forecast period: 1000 to 1600 UTC 23 March 2019
Forecast type: FROM: standard forecast or significant change
Winds: variable direction winds at 6 MPH (5 knots; 2.6 m/s)
Visibility: 6 miles (10 km)
Ceiling: 2500 feet AGL
Clouds: scattered clouds at 800 feet AGL
overcast cloud deck at 2500 feet AGL
Weather: BR VCSH  (mist, showers in vicinity)
Text: FM231600 22006KT P6SM VCSH SCT025 BKN040
Forecast period: 1600 UTC 23 March 2019 to 0000 UTC 24 March 2019
Forecast type: FROM: standard forecast or significant change
Winds: from the SW (220 degrees) at 7 MPH (6 knots; 3.1 m/s)
Visibility: 6 or more miles 10+ km)
Ceiling: 4000 feet AGL
Clouds: scattered clouds at 2500 feet AGL
broken clouds at 4000 feet AGL
Weather: VCSH  (showers in vicinity)